sensor_id;sensor_type;location;lat;lon;timestamp;P1;durP1;ratioP1;P2;durP2;ratioP2
84523;SDS011;74765;44.538;18.668;2024-03-07T00:00:57;39.60;;;23.88;;
84523;SDS011;74765;44.538;18.668;2024-03-07T00:03:25;39.70;;;24.30;;
84523;SDS011;74765;44.538;18.668;2024-03-07T00:05:51;41.67;;;24.52;;
84523;SDS011;74765;44.538;18.668;2024-03-07T00:08:17;40.55;;;24.50;;
84523;SDS011;74765;44.538;18.668;2024-03-07T00:10:42;41.80;;;24.08;;
84523;SDS011;74765;44.538;18.668;2024-03-07T00:13:09;43.42;;;23.60;;
84523;SDS011;74765;44.538;18.668;2024-03-07T00:15:35;41.50;;;24.05;;
84523;SDS011;74765;44.538;18.668;2024-03-07T00:18:02;41.90;;;24.05;;
84523;SDS011;74765;44.538;18.668;2024-03-07T00:20:28;39.22;;;23.40;;
84523;SDS011;74765;44.538;18.668;2024-03-07T00:22:53;43.40;;;23.98;;
84523;SDS011;74765;44.538;18.668;2024-03-07T00:25:19;52.08;;;27.25;;
84523;SDS011;74765;44.538;18.668;2024-03-07T00:27:45;53.42;;;28.40;;
84523;SDS011;74765;44.538;18.668;2024-03-07T00:30:11;52.25;;;27.13;;
84523;SDS011;74765;44.538;18.668;2024-03-07T00:32:39;45.33;;;24.80;;
84523;SDS011;74765;44.538;18.668;2024-03-07T00:35:08;54.25;;;27.15;;
84523;SDS011;74765;44.538;18.668;2024-03-07T00:37:34;53.45;;;27.45;;
84523;SDS011;74765;44.538;18.668;2024-03-07T00:40:00;50.88;;;27.42;;
84523;SDS011;74765;44.538;18.668;2024-03-07T00:42:26;40.08;;;22.85;;
84523;SDS011;74765;44.538;18.668;2024-03-07T00:44:54;42.80;;;22.83;;
84523;SDS011;74765;44.538;18.668;2024-03-07T00:47:21;32.95;;;19.67;;
84523;SDS011;74765;44.538;18.668;2024-03-07T00:49:47;27.15;;;16.55;;
84523;SDS011;74765;44.538;18.668;2024-03-07T00:52:13;27.00;;;15.45;;
84523;SDS011;74765;44.538;18.668;2024-03-07T00:54:39;22.63;;;14.75;;
84523;SDS011;74765;44.538;18.668;2024-03-07T00:57:04;18.45;;;12.65;;
84523;SDS011;74765;44.538;18.668;2024-03-07T00:59:30;20.00;;;12.18;;
84523;SDS011;74765;44.538;18.668;2024-03-07T01:01:56;16.98;;;11.43;;
84523;SDS011;74765;44.538;18.668;2024-03-07T01:04:22;17.35;;;11.30;;
84523;SDS011;74765;44.538;18.668;2024-03-07T01:06:48;15.60;;;10.65;;
84523;SDS011;74765;44.538;18.668;2024-03-07T01:09:14;15.48;;;9.50;;
84523;SDS011;74765;44.538;18.668;2024-03-07T01:11:44;16.30;;;8.60;;
84523;SDS011;74765;44.538;18.668;2024-03-07T01:14:10;12.80;;;8.18;;
84523;SDS011;74765;44.538;18.668;2024-03-07T01:16:36;9.95;;;7.15;;
84523;SDS011;74765;44.538;18.668;2024-03-07T01:19:02;9.65;;;6.43;;
84523;SDS011;74765;44.538;18.668;2024-03-07T01:21:32;10.47;;;7.53;;
84523;SDS011;74765;44.538;18.668;2024-03-07T01:24:01;9.18;;;7.05;;
84523;SDS011;74765;44.538;18.668;2024-03-07T01:26:27;10.95;;;7.43;;
84523;SDS011;74765;44.538;18.668;2024-03-07T01:28:54;11.25;;;6.43;;
84523;SDS011;74765;44.538;18.668;2024-03-07T01:31:21;10.40;;;7.28;;
84523;SDS011;74765;44.538;18.668;2024-03-07T01:33:47;11.90;;;7.35;;
84523;SDS011;74765;44.538;18.668;2024-03-07T01:36:13;9.85;;;7.22;;
84523;SDS011;74765;44.538;18.668;2024-03-07T01:38:39;12.68;;;8.80;;
84523;SDS011;74765;44.538;18.668;2024-03-07T01:41:05;12.25;;;8.27;;
84523;SDS011;74765;44.538;18.668;2024-03-07T01:43:31;12.98;;;9.35;;
84523;SDS011;74765;44.538;18.668;2024-03-07T01:45:56;14.20;;;9.10;;
84523;SDS011;74765;44.538;18.668;2024-03-07T01:48:26;12.50;;;8.20;;
84523;SDS011;74765;44.538;18.668;2024-03-07T01:50:54;13.40;;;8.75;;
84523;SDS011;74765;44.538;18.668;2024-03-07T01:53:24;15.65;;;9.90;;
84523;SDS011;74765;44.538;18.668;2024-03-07T01:55:52;15.50;;;10.18;;
84523;SDS011;74765;44.538;18.668;2024-03-07T01:58:19;13.35;;;9.02;;
84523;SDS011;74765;44.538;18.668;2024-03-07T02:00:46;15.52;;;9.88;;
84523;SDS011;74765;44.538;18.668;2024-03-07T02:03:15;14.00;;;9.00;;
84523;SDS011;74765;44.538;18.668;2024-03-07T02:05:41;13.35;;;8.45;;
84523;SDS011;74765;44.538;18.668;2024-03-07T02:08:08;11.18;;;7.95;;
84523;SDS011;74765;44.538;18.668;2024-03-07T02:10:33;11.60;;;7.80;;
84523;SDS011;74765;44.538;18.668;2024-03-07T02:12:59;10.50;;;7.43;;
84523;SDS011;74765;44.538;18.668;2024-03-07T02:15:26;10.90;;;7.70;;
84523;SDS011;74765;44.538;18.668;2024-03-07T02:17:52;10.13;;;7.50;;
84523;SDS011;74765;44.538;18.668;2024-03-07T02:20:18;12.85;;;7.57;;
84523;SDS011;74765;44.538;18.668;2024-03-07T02:22:44;11.48;;;7.78;;
84523;SDS011;74765;44.538;18.668;2024-03-07T02:25:10;11.40;;;7.30;;
84523;SDS011;74765;44.538;18.668;2024-03-07T02:27:39;11.73;;;7.43;;
84523;SDS011;74765;44.538;18.668;2024-03-07T02:30:04;10.40;;;7.18;;
84523;SDS011;74765;44.538;18.668;2024-03-07T02:32:34;9.13;;;6.83;;
84523;SDS011;74765;44.538;18.668;2024-03-07T02:35:02;9.25;;;6.70;;
84523;SDS011;74765;44.538;18.668;2024-03-07T02:37:32;12.02;;;6.93;;
84523;SDS011;74765;44.538;18.668;2024-03-07T02:39:57;9.55;;;6.82;;
84523;SDS011;74765;44.538;18.668;2024-03-07T02:42:23;8.95;;;6.65;;
84523;SDS011;74765;44.538;18.668;2024-03-07T02:44:49;12.82;;;7.03;;
84523;SDS011;74765;44.538;18.668;2024-03-07T02:47:15;8.98;;;6.95;;
84523;SDS011;74765;44.538;18.668;2024-03-07T02:49:40;10.85;;;7.85;;
84523;SDS011;74765;44.538;18.668;2024-03-07T02:52:06;12.15;;;7.45;;
84523;SDS011;74765;44.538;18.668;2024-03-07T02:54:33;10.13;;;6.65;;
84523;SDS011;74765;44.538;18.668;2024-03-07T02:56:59;9.90;;;6.80;;
84523;SDS011;74765;44.538;18.668;2024-03-07T02:59:25;10.15;;;6.80;;
84523;SDS011;74765;44.538;18.668;2024-03-07T03:01:51;12.85;;;6.78;;
84523;SDS011;74765;44.538;18.668;2024-03-07T03:04:16;8.95;;;6.43;;
84523;SDS011;74765;44.538;18.668;2024-03-07T03:06:43;8.38;;;5.85;;
84523;SDS011;74765;44.538;18.668;2024-03-07T03:09:09;9.20;;;5.53;;
84523;SDS011;74765;44.538;18.668;2024-03-07T03:11:38;7.65;;;5.38;;
84523;SDS011;74765;44.538;18.668;2024-03-07T03:14:04;7.40;;;5.13;;
84523;SDS011;74765;44.538;18.668;2024-03-07T03:16:30;6.70;;;4.85;;
84523;SDS011;74765;44.538;18.668;2024-03-07T03:18:56;5.80;;;4.70;;
84523;SDS011;74765;44.538;18.668;2024-03-07T03:21:23;6.32;;;4.70;;
84523;SDS011;74765;44.538;18.668;2024-03-07T03:23:49;6.82;;;4.80;;
84523;SDS011;74765;44.538;18.668;2024-03-07T03:26:15;7.18;;;3.92;;
84523;SDS011;74765;44.538;18.668;2024-03-07T03:28:41;5.55;;;4.00;;
84523;SDS011;74765;44.538;18.668;2024-03-07T03:31:07;3.45;;;2.90;;
84523;SDS011;74765;44.538;18.668;2024-03-07T03:33:33;4.32;;;3.20;;
84523;SDS011;74765;44.538;18.668;2024-03-07T03:36:00;3.90;;;3.35;;
84523;SDS011;74765;44.538;18.668;2024-03-07T03:38:26;4.70;;;2.97;;
84523;SDS011;74765;44.538;18.668;2024-03-07T03:40:52;5.05;;;3.45;;
84523;SDS011;74765;44.538;18.668;2024-03-07T03:43:17;5.55;;;3.67;;
84523;SDS011;74765;44.538;18.668;2024-03-07T03:45:44;4.38;;;3.17;;
84523;SDS011;74765;44.538;18.668;2024-03-07T03:48:10;3.50;;;2.85;;
84523;SDS011;74765;44.538;18.668;2024-03-07T03:50:36;4.45;;;3.15;;
84523;SDS011;74765;44.538;18.668;2024-03-07T03:53:02;5.03;;;3.15;;
84523;SDS011;74765;44.538;18.668;2024-03-07T03:55:29;3.53;;;2.92;;
84523;SDS011;74765;44.538;18.668;2024-03-07T03:57:55;5.28;;;3.13;;
84523;SDS011;74765;44.538;18.668;2024-03-07T04:00:20;4.18;;;3.50;;
84523;SDS011;74765;44.538;18.668;2024-03-07T04:02:48;4.43;;;3.00;;
84523;SDS011;74765;44.538;18.668;2024-03-07T04:05:14;4.65;;;3.47;;
84523;SDS011;74765;44.538;18.668;2024-03-07T04:07:42;3.83;;;3.10;;
84523;SDS011;74765;44.538;18.668;2024-03-07T04:10:08;5.55;;;3.10;;
84523;SDS011;74765;44.538;18.668;2024-03-07T04:12:35;5.25;;;3.47;;
84523;SDS011;74765;44.538;18.668;2024-03-07T04:15:08;5.22;;;4.00;;
84523;SDS011;74765;44.538;18.668;2024-03-07T04:17:36;4.30;;;3.03;;
84523;SDS011;74765;44.538;18.668;2024-03-07T04:20:03;4.25;;;3.28;;
84523;SDS011;74765;44.538;18.668;2024-03-07T04:22:35;3.70;;;2.88;;
84523;SDS011;74765;44.538;18.668;2024-03-07T04:25:04;3.80;;;3.20;;
84523;SDS011;74765;44.538;18.668;2024-03-07T04:27:32;5.45;;;3.58;;
84523;SDS011;74765;44.538;18.668;2024-03-07T04:29:59;4.95;;;3.65;;
84523;SDS011;74765;44.538;18.668;2024-03-07T04:32:28;6.03;;;3.45;;
84523;SDS011;74765;44.538;18.668;2024-03-07T04:34:54;5.25;;;3.30;;
84523;SDS011;74765;44.538;18.668;2024-03-07T04:37:22;4.88;;;3.20;;
84523;SDS011;74765;44.538;18.668;2024-03-07T04:39:48;5.45;;;3.20;;
84523;SDS011;74765;44.538;18.668;2024-03-07T04:42:14;4.60;;;3.22;;
84523;SDS011;74765;44.538;18.668;2024-03-07T04:44:40;5.75;;;3.47;;
84523;SDS011;74765;44.538;18.668;2024-03-07T04:47:06;6.68;;;4.28;;
84523;SDS011;74765;44.538;18.668;2024-03-07T04:49:33;7.93;;;4.68;;
84523;SDS011;74765;44.538;18.668;2024-03-07T04:52:00;8.57;;;4.90;;
84523;SDS011;74765;44.538;18.668;2024-03-07T04:54:27;9.43;;;5.50;;
84523;SDS011;74765;44.538;18.668;2024-03-07T04:56:54;9.02;;;4.80;;
84523;SDS011;74765;44.538;18.668;2024-03-07T04:59:20;6.78;;;4.63;;
84523;SDS011;74765;44.538;18.668;2024-03-07T05:01:47;11.18;;;5.78;;
84523;SDS011;74765;44.538;18.668;2024-03-07T05:04:15;9.18;;;5.25;;
84523;SDS011;74765;44.538;18.668;2024-03-07T05:06:42;7.88;;;5.68;;
84523;SDS011;74765;44.538;18.668;2024-03-07T05:09:09;9.70;;;5.95;;
84523;SDS011;74765;44.538;18.668;2024-03-07T05:11:48;8.43;;;6.00;;
84523;SDS011;74765;44.538;18.668;2024-03-07T05:14:17;9.48;;;6.45;;
84523;SDS011;74765;44.538;18.668;2024-03-07T05:16:43;10.18;;;6.55;;
84523;SDS011;74765;44.538;18.668;2024-03-07T05:19:08;8.50;;;5.72;;
84523;SDS011;74765;44.538;18.668;2024-03-07T05:21:34;10.23;;;6.80;;
84523;SDS011;74765;44.538;18.668;2024-03-07T05:24:06;9.68;;;6.72;;
84523;SDS011;74765;44.538;18.668;2024-03-07T05:26:33;10.95;;;6.35;;
84523;SDS011;74765;44.538;18.668;2024-03-07T05:29:04;13.88;;;7.90;;
84523;SDS011;74765;44.538;18.668;2024-03-07T05:31:31;12.00;;;7.72;;
84523;SDS011;74765;44.538;18.668;2024-03-07T05:34:03;11.77;;;7.40;;
84523;SDS011;74765;44.538;18.668;2024-03-07T05:36:30;14.10;;;8.27;;
84523;SDS011;74765;44.538;18.668;2024-03-07T05:38:57;13.20;;;7.90;;
84523;SDS011;74765;44.538;18.668;2024-03-07T05:41:23;14.52;;;8.55;;
84523;SDS011;74765;44.538;18.668;2024-03-07T05:43:49;17.75;;;8.45;;
84523;SDS011;74765;44.538;18.668;2024-03-07T05:46:16;15.93;;;8.50;;
84523;SDS011;74765;44.538;18.668;2024-03-07T05:48:42;10.85;;;6.82;;
84523;SDS011;74765;44.538;18.668;2024-03-07T05:51:11;15.60;;;9.00;;
84523;SDS011;74765;44.538;18.668;2024-03-07T05:53:36;16.70;;;8.70;;
84523;SDS011;74765;44.538;18.668;2024-03-07T05:56:03;16.45;;;9.40;;
84523;SDS011;74765;44.538;18.668;2024-03-07T05:58:29;15.52;;;8.60;;
84523;SDS011;74765;44.538;18.668;2024-03-07T06:00:54;14.77;;;8.77;;
84523;SDS011;74765;44.538;18.668;2024-03-07T06:03:20;13.35;;;8.35;;
84523;SDS011;74765;44.538;18.668;2024-03-07T06:05:47;16.75;;;8.75;;
84523;SDS011;74765;44.538;18.668;2024-03-07T06:08:16;19.13;;;9.60;;
84523;SDS011;74765;44.538;18.668;2024-03-07T06:10:43;15.85;;;9.02;;
84523;SDS011;74765;44.538;18.668;2024-03-07T06:13:13;15.82;;;7.70;;
84523;SDS011;74765;44.538;18.668;2024-03-07T06:15:43;13.80;;;7.95;;
84523;SDS011;74765;44.538;18.668;2024-03-07T06:18:10;14.82;;;8.57;;
84523;SDS011;74765;44.538;18.668;2024-03-07T06:20:36;14.32;;;9.25;;
84523;SDS011;74765;44.538;18.668;2024-03-07T06:23:02;18.05;;;11.23;;
84523;SDS011;74765;44.538;18.668;2024-03-07T06:25:33;15.32;;;8.85;;
84523;SDS011;74765;44.538;18.668;2024-03-07T06:28:05;18.38;;;10.07;;
84523;SDS011;74765;44.538;18.668;2024-03-07T06:30:35;19.48;;;10.95;;
84523;SDS011;74765;44.538;18.668;2024-03-07T06:33:02;18.83;;;10.38;;
84523;SDS011;74765;44.538;18.668;2024-03-07T06:35:29;18.35;;;10.68;;
84523;SDS011;74765;44.538;18.668;2024-03-07T06:37:54;18.42;;;10.25;;
84523;SDS011;74765;44.538;18.668;2024-03-07T06:40:20;20.40;;;11.45;;
84523;SDS011;74765;44.538;18.668;2024-03-07T06:42:47;17.10;;;9.63;;
84523;SDS011;74765;44.538;18.668;2024-03-07T06:45:14;18.52;;;10.95;;
84523;SDS011;74765;44.538;18.668;2024-03-07T06:47:40;15.07;;;10.15;;
84523;SDS011;74765;44.538;18.668;2024-03-07T06:50:06;14.73;;;9.93;;
84523;SDS011;74765;44.538;18.668;2024-03-07T06:52:35;18.52;;;11.77;;
84523;SDS011;74765;44.538;18.668;2024-03-07T06:55:03;20.45;;;10.75;;
84523;SDS011;74765;44.538;18.668;2024-03-07T06:57:29;21.92;;;11.50;;
84523;SDS011;74765;44.538;18.668;2024-03-07T06:59:55;19.17;;;10.38;;
84523;SDS011;74765;44.538;18.668;2024-03-07T07:02:23;20.23;;;11.50;;
84523;SDS011;74765;44.538;18.668;2024-03-07T07:04:49;19.47;;;11.20;;
84523;SDS011;74765;44.538;18.668;2024-03-07T07:07:15;21.77;;;11.23;;
84523;SDS011;74765;44.538;18.668;2024-03-07T07:09:41;19.73;;;12.20;;
84523;SDS011;74765;44.538;18.668;2024-03-07T07:12:07;14.27;;;9.50;;
84523;SDS011;74765;44.538;18.668;2024-03-07T07:14:33;14.30;;;9.10;;
84523;SDS011;74765;44.538;18.668;2024-03-07T07:17:08;16.90;;;10.00;;
84523;SDS011;74765;44.538;18.668;2024-03-07T07:19:44;23.02;;;13.38;;
84523;SDS011;74765;44.538;18.668;2024-03-07T07:22:21;11.43;;;8.05;;
84523;SDS011;74765;44.538;18.668;2024-03-07T07:24:47;13.52;;;8.05;;
84523;SDS011;74765;44.538;18.668;2024-03-07T07:27:13;13.57;;;8.18;;
84523;SDS011;74765;44.538;18.668;2024-03-07T07:29:38;15.25;;;8.50;;
84523;SDS011;74765;44.538;18.668;2024-03-07T07:32:05;13.65;;;8.70;;
84523;SDS011;74765;44.538;18.668;2024-03-07T07:34:31;13.38;;;8.38;;
84523;SDS011;74765;44.538;18.668;2024-03-07T07:36:56;16.10;;;9.27;;
84523;SDS011;74765;44.538;18.668;2024-03-07T07:39:23;15.07;;;9.50;;
84523;SDS011;74765;44.538;18.668;2024-03-07T07:41:49;15.90;;;9.73;;
84523;SDS011;74765;44.538;18.668;2024-03-07T07:44:15;18.10;;;9.57;;
84523;SDS011;74765;44.538;18.668;2024-03-07T07:46:41;18.25;;;10.98;;
84523;SDS011;74765;44.538;18.668;2024-03-07T07:49:09;17.52;;;10.80;;
84523;SDS011;74765;44.538;18.668;2024-03-07T07:51:35;20.50;;;10.30;;
84523;SDS011;74765;44.538;18.668;2024-03-07T07:54:01;18.55;;;11.23;;
84523;SDS011;74765;44.538;18.668;2024-03-07T07:56:27;18.88;;;10.80;;
84523;SDS011;74765;44.538;18.668;2024-03-07T07:58:53;19.17;;;10.30;;
84523;SDS011;74765;44.538;18.668;2024-03-07T08:01:22;19.67;;;11.98;;
84523;SDS011;74765;44.538;18.668;2024-03-07T08:03:48;18.10;;;10.85;;
84523;SDS011;74765;44.538;18.668;2024-03-07T08:06:15;25.02;;;13.95;;
84523;SDS011;74765;44.538;18.668;2024-03-07T08:08:42;29.45;;;16.45;;
84523;SDS011;74765;44.538;18.668;2024-03-07T08:11:08;30.23;;;15.32;;
84523;SDS011;74765;44.538;18.668;2024-03-07T08:13:34;28.90;;;15.90;;
84523;SDS011;74765;44.538;18.668;2024-03-07T08:16:00;26.17;;;13.98;;
84523;SDS011;74765;44.538;18.668;2024-03-07T08:18:26;23.98;;;13.43;;
84523;SDS011;74765;44.538;18.668;2024-03-07T08:20:52;26.63;;;13.82;;
84523;SDS011;74765;44.538;18.668;2024-03-07T08:23:18;23.80;;;13.32;;
84523;SDS011;74765;44.538;18.668;2024-03-07T08:25:43;21.17;;;12.38;;
84523;SDS011;74765;44.538;18.668;2024-03-07T08:28:09;22.95;;;11.15;;
84523;SDS011;74765;44.538;18.668;2024-03-07T08:30:35;24.42;;;13.20;;
84523;SDS011;74765;44.538;18.668;2024-03-07T08:33:01;24.13;;;12.35;;
84523;SDS011;74765;44.538;18.668;2024-03-07T08:35:30;25.50;;;12.23;;
84523;SDS011;74765;44.538;18.668;2024-03-07T08:37:56;22.65;;;12.50;;
84523;SDS011;74765;44.538;18.668;2024-03-07T08:40:23;23.77;;;11.80;;
84523;SDS011;74765;44.538;18.668;2024-03-07T08:42:56;26.58;;;13.10;;
84523;SDS011;74765;44.538;18.668;2024-03-07T08:45:25;31.08;;;15.13;;
84523;SDS011;74765;44.538;18.668;2024-03-07T08:47:53;25.50;;;14.32;;
84523;SDS011;74765;44.538;18.668;2024-03-07T08:50:21;30.58;;;15.25;;
84523;SDS011;74765;44.538;18.668;2024-03-07T08:52:48;29.65;;;14.40;;
84523;SDS011;74765;44.538;18.668;2024-03-07T08:55:15;21.85;;;11.80;;
84523;SDS011;74765;44.538;18.668;2024-03-07T08:57:47;18.52;;;10.60;;
84523;SDS011;74765;44.538;18.668;2024-03-07T09:00:15;19.73;;;11.23;;
84523;SDS011;74765;44.538;18.668;2024-03-07T09:03:00;16.23;;;9.50;;
84523;SDS011;74765;44.538;18.668;2024-03-07T09:05:29;17.48;;;11.13;;
84523;SDS011;74765;44.538;18.668;2024-03-07T09:10:57;16.00;;;9.35;;
84523;SDS011;74765;44.538;18.668;2024-03-07T09:13:51;15.40;;;9.57;;
84523;SDS011;74765;44.538;18.668;2024-03-07T09:16:17;17.83;;;9.75;;
84523;SDS011;74765;44.538;18.668;2024-03-07T09:19:15;15.20;;;10.25;;
84523;SDS011;74765;44.538;18.668;2024-03-07T09:21:48;17.48;;;9.77;;
84523;SDS011;74765;44.538;18.668;2024-03-07T09:24:15;16.40;;;10.75;;
84523;SDS011;74765;44.538;18.668;2024-03-07T09:26:41;19.65;;;11.10;;
84523;SDS011;74765;44.538;18.668;2024-03-07T09:29:07;22.75;;;11.88;;
84523;SDS011;74765;44.538;18.668;2024-03-07T09:31:33;18.67;;;11.65;;
84523;SDS011;74765;44.538;18.668;2024-03-07T09:33:59;23.45;;;12.32;;
84523;SDS011;74765;44.538;18.668;2024-03-07T09:36:25;22.73;;;11.05;;
84523;SDS011;74765;44.538;18.668;2024-03-07T09:38:51;21.00;;;11.35;;
84523;SDS011;74765;44.538;18.668;2024-03-07T09:41:18;20.52;;;10.55;;
84523;SDS011;74765;44.538;18.668;2024-03-07T09:43:46;19.13;;;10.68;;
84523;SDS011;74765;44.538;18.668;2024-03-07T09:46:13;22.05;;;11.02;;
84523;SDS011;74765;44.538;18.668;2024-03-07T09:48:41;22.67;;;12.25;;
84523;SDS011;74765;44.538;18.668;2024-03-07T09:51:10;19.23;;;11.03;;
84523;SDS011;74765;44.538;18.668;2024-03-07T09:53:38;23.73;;;13.48;;
84523;SDS011;74765;44.538;18.668;2024-03-07T09:56:06;19.10;;;9.80;;
84523;SDS011;74765;44.538;18.668;2024-03-07T09:58:32;18.90;;;10.88;;
84523;SDS011;74765;44.538;18.668;2024-03-07T10:01:10;23.40;;;12.73;;
84523;SDS011;74765;44.538;18.668;2024-03-07T10:04:00;16.92;;;10.32;;
84523;SDS011;74765;44.538;18.668;2024-03-07T10:06:38;22.17;;;11.00;;
84523;SDS011;74765;44.538;18.668;2024-03-07T10:09:09;20.23;;;10.18;;
84523;SDS011;74765;44.538;18.668;2024-03-07T10:11:39;21.63;;;12.63;;
84523;SDS011;74765;44.538;18.668;2024-03-07T10:14:11;21.10;;;11.27;;
84523;SDS011;74765;44.538;18.668;2024-03-07T10:16:38;19.52;;;11.80;;
84523;SDS011;74765;44.538;18.668;2024-03-07T10:19:06;24.60;;;11.27;;
84523;SDS011;74765;44.538;18.668;2024-03-07T10:21:35;23.85;;;14.27;;
84523;SDS011;74765;44.538;18.668;2024-03-07T10:24:08;31.55;;;14.07;;
84523;SDS011;74765;44.538;18.668;2024-03-07T10:26:39;29.60;;;13.95;;
84523;SDS011;74765;44.538;18.668;2024-03-07T10:29:05;28.20;;;13.85;;
84523;SDS011;74765;44.538;18.668;2024-03-07T10:31:35;26.98;;;15.07;;
84523;SDS011;74765;44.538;18.668;2024-03-07T10:34:04;31.07;;;15.23;;
84523;SDS011;74765;44.538;18.668;2024-03-07T10:36:30;26.00;;;14.02;;
84523;SDS011;74765;44.538;18.668;2024-03-07T10:39:02;27.83;;;14.05;;
84523;SDS011;74765;44.538;18.668;2024-03-07T10:41:47;28.77;;;14.82;;
84523;SDS011;74765;44.538;18.668;2024-03-07T10:44:18;30.58;;;14.57;;
84523;SDS011;74765;44.538;18.668;2024-03-07T10:46:57;31.63;;;15.95;;
84523;SDS011;74765;44.538;18.668;2024-03-07T10:49:31;26.47;;;15.27;;
84523;SDS011;74765;44.538;18.668;2024-03-07T11:00:25;25.48;;;14.20;;
84523;SDS011;74765;44.538;18.668;2024-03-07T11:03:01;30.17;;;14.18;;
84523;SDS011;74765;44.538;18.668;2024-03-07T11:05:32;27.38;;;14.95;;
84523;SDS011;74765;44.538;18.668;2024-03-07T11:08:10;23.40;;;13.60;;
84523;SDS011;74765;44.538;18.668;2024-03-07T11:10:39;26.60;;;14.02;;
84523;SDS011;74765;44.538;18.668;2024-03-07T11:13:06;24.00;;;14.15;;
84523;SDS011;74765;44.538;18.668;2024-03-07T11:15:39;27.40;;;14.75;;
84523;SDS011;74765;44.538;18.668;2024-03-07T11:18:14;22.85;;;14.13;;
84523;SDS011;74765;44.538;18.668;2024-03-07T11:20:41;28.25;;;14.55;;
84523;SDS011;74765;44.538;18.668;2024-03-07T11:26:10;22.38;;;12.50;;
84523;SDS011;74765;44.538;18.668;2024-03-07T11:28:40;24.30;;;13.40;;
84523;SDS011;74765;44.538;18.668;2024-03-07T11:34:14;27.95;;;15.02;;
84523;SDS011;74765;44.538;18.668;2024-03-07T11:36:41;29.98;;;15.18;;
84523;SDS011;74765;44.538;18.668;2024-03-07T11:44:53;28.13;;;15.20;;
84523;SDS011;74765;44.538;18.668;2024-03-07T11:47:24;32.80;;;15.82;;
84523;SDS011;74765;44.538;18.668;2024-03-07T11:49:54;29.20;;;15.43;;
84523;SDS011;74765;44.538;18.668;2024-03-07T11:52:23;29.63;;;16.43;;
84523;SDS011;74765;44.538;18.668;2024-03-07T11:54:49;31.30;;;16.80;;
84523;SDS011;74765;44.538;18.668;2024-03-07T11:57:17;29.15;;;16.83;;
84523;SDS011;74765;44.538;18.668;2024-03-07T11:59:44;30.13;;;15.10;;
84523;SDS011;74765;44.538;18.668;2024-03-07T12:02:12;26.83;;;15.48;;
84523;SDS011;74765;44.538;18.668;2024-03-07T12:04:48;33.83;;;18.13;;
84523;SDS011;74765;44.538;18.668;2024-03-07T12:07:17;36.75;;;19.70;;
84523;SDS011;74765;44.538;18.668;2024-03-07T12:09:43;32.90;;;18.95;;
84523;SDS011;74765;44.538;18.668;2024-03-07T12:12:16;36.38;;;20.27;;
84523;SDS011;74765;44.538;18.668;2024-03-07T12:14:47;40.65;;;21.63;;
84523;SDS011;74765;44.538;18.668;2024-03-07T12:17:19;39.97;;;21.20;;
84523;SDS011;74765;44.538;18.668;2024-03-07T12:19:46;33.83;;;18.95;;
84523;SDS011;74765;44.538;18.668;2024-03-07T12:22:13;32.70;;;19.60;;
84523;SDS011;74765;44.538;18.668;2024-03-07T12:24:40;36.67;;;21.35;;
84523;SDS011;74765;44.538;18.668;2024-03-07T12:29:57;38.58;;;21.38;;
84523;SDS011;74765;44.538;18.668;2024-03-07T12:32:23;41.70;;;23.50;;
84523;SDS011;74765;44.538;18.668;2024-03-07T12:34:57;39.70;;;22.73;;
84523;SDS011;74765;44.538;18.668;2024-03-07T12:37:23;37.83;;;22.45;;
84523;SDS011;74765;44.538;18.668;2024-03-07T12:39:52;47.00;;;24.13;;
84523;SDS011;74765;44.538;18.668;2024-03-07T12:42:27;37.53;;;21.92;;
84523;SDS011;74765;44.538;18.668;2024-03-07T12:44:57;40.05;;;20.88;;
84523;SDS011;74765;44.538;18.668;2024-03-07T12:47:24;41.90;;;22.08;;
84523;SDS011;74765;44.538;18.668;2024-03-07T12:49:53;43.20;;;23.10;;
84523;SDS011;74765;44.538;18.668;2024-03-07T12:52:19;40.88;;;22.08;;
84523;SDS011;74765;44.538;18.668;2024-03-07T12:54:45;45.15;;;21.45;;
84523;SDS011;74765;44.538;18.668;2024-03-07T12:57:13;41.00;;;22.20;;
84523;SDS011;74765;44.538;18.668;2024-03-07T12:59:39;44.33;;;22.48;;
84523;SDS011;74765;44.538;18.668;2024-03-07T13:02:08;40.05;;;21.38;;
84523;SDS011;74765;44.538;18.668;2024-03-07T13:04:35;40.45;;;21.45;;
84523;SDS011;74765;44.538;18.668;2024-03-07T13:07:05;35.70;;;20.63;;
84523;SDS011;74765;44.538;18.668;2024-03-07T13:09:32;51.22;;;22.58;;
84523;SDS011;74765;44.538;18.668;2024-03-07T13:12:03;48.95;;;24.95;;
84523;SDS011;74765;44.538;18.668;2024-03-07T13:14:32;46.00;;;24.95;;
84523;SDS011;74765;44.538;18.668;2024-03-07T13:17:02;47.03;;;26.50;;
84523;SDS011;74765;44.538;18.668;2024-03-07T13:19:30;48.25;;;24.67;;
84523;SDS011;74765;44.538;18.668;2024-03-07T13:21:56;43.58;;;22.58;;
84523;SDS011;74765;44.538;18.668;2024-03-07T13:24:22;39.88;;;20.85;;
84523;SDS011;74765;44.538;18.668;2024-03-07T13:26:53;41.25;;;22.48;;
84523;SDS011;74765;44.538;18.668;2024-03-07T13:29:19;39.17;;;21.83;;
84523;SDS011;74765;44.538;18.668;2024-03-07T13:31:54;38.63;;;18.98;;
84523;SDS011;74765;44.538;18.668;2024-03-07T13:34:21;29.85;;;18.05;;
84523;SDS011;74765;44.538;18.668;2024-03-07T13:36:47;31.90;;;17.77;;
84523;SDS011;74765;44.538;18.668;2024-03-07T13:39:13;33.08;;;17.70;;
84523;SDS011;74765;44.538;18.668;2024-03-07T13:41:42;34.80;;;20.02;;
84523;SDS011;74765;44.538;18.668;2024-03-07T13:44:16;31.38;;;18.15;;
84523;SDS011;74765;44.538;18.668;2024-03-07T13:46:44;31.50;;;17.50;;
84523;SDS011;74765;44.538;18.668;2024-03-07T13:49:10;32.88;;;18.10;;
84523;SDS011;74765;44.538;18.668;2024-03-07T13:51:39;30.83;;;18.17;;
84523;SDS011;74765;44.538;18.668;2024-03-07T13:54:16;31.63;;;17.92;;
84523;SDS011;74765;44.538;18.668;2024-03-07T14:16:17;32.10;;;18.10;;
84523;SDS011;74765;44.538;18.668;2024-03-07T14:29:55;33.33;;;18.65;;
84523;SDS011;74765;44.538;18.668;2024-03-07T14:32:23;33.53;;;19.45;;
84523;SDS011;74765;44.538;18.668;2024-03-07T14:37:49;32.42;;;18.33;;
84523;SDS011;74765;44.538;18.668;2024-03-07T14:40:17;33.33;;;18.33;;
84523;SDS011;74765;44.538;18.668;2024-03-07T14:42:45;38.90;;;18.60;;
84523;SDS011;74765;44.538;18.668;2024-03-07T14:45:18;35.67;;;18.60;;
84523;SDS011;74765;44.538;18.668;2024-03-07T14:47:46;34.95;;;19.67;;
84523;SDS011;74765;44.538;18.668;2024-03-07T14:50:15;34.67;;;19.45;;
84523;SDS011;74765;44.538;18.668;2024-03-07T14:52:42;35.55;;;19.83;;
84523;SDS011;74765;44.538;18.668;2024-03-07T14:55:10;38.08;;;20.95;;
84523;SDS011;74765;44.538;18.668;2024-03-07T14:57:39;32.88;;;19.52;;
84523;SDS011;74765;44.538;18.668;2024-03-07T15:00:07;37.83;;;22.08;;
84523;SDS011;74765;44.538;18.668;2024-03-07T15:02:46;36.17;;;20.17;;
84523;SDS011;74765;44.538;18.668;2024-03-07T15:05:12;36.03;;;19.23;;
84523;SDS011;74765;44.538;18.668;2024-03-07T15:07:39;37.10;;;20.33;;
84523;SDS011;74765;44.538;18.668;2024-03-07T15:10:06;37.72;;;20.83;;
84523;SDS011;74765;44.538;18.668;2024-03-07T15:12:49;34.55;;;20.60;;
84523;SDS011;74765;44.538;18.668;2024-03-07T15:15:15;41.78;;;22.15;;
84523;SDS011;74765;44.538;18.668;2024-03-07T15:17:44;40.55;;;22.02;;
84523;SDS011;74765;44.538;18.668;2024-03-07T15:20:11;39.20;;;22.42;;